createdAt,value
2023-04-26T00:02:21.057Z,21.30
2023-04-26T00:04:52.217Z,21.31
2023-04-26T00:07:24.840Z,21.32
2023-04-26T00:09:52.813Z,21.29
2023-04-26T00:12:20.421Z,21.30
2023-04-26T00:14:47.654Z,21.29
2023-04-26T00:17:14.818Z,21.28
2023-04-26T00:19:42.049Z,21.29
2023-04-26T00:22:09.262Z,21.30
2023-04-26T00:24:36.577Z,21.30
2023-04-26T00:27:08.932Z,21.29
2023-04-26T00:29:37.182Z,21.30
2023-04-26T00:32:04.765Z,21.27
2023-04-26T00:34:36.076Z,21.26
2023-04-26T00:37:04.216Z,21.26
2023-04-26T00:39:31.545Z,21.27
2023-04-26T00:41:58.918Z,21.27
2023-04-26T00:44:26.174Z,21.27
2023-04-26T00:46:54.083Z,21.26
2023-04-26T00:49:23.486Z,21.27
2023-04-26T00:51:51.759Z,21.26
2023-04-26T00:54:20.018Z,21.26
2023-04-26T00:56:47.504Z,21.25
2023-04-26T00:59:14.680Z,21.25
2023-04-26T01:01:42.681Z,21.23
2023-04-26T01:04:09.984Z,21.25
2023-04-26T01:06:38.530Z,21.23
2023-04-26T01:09:10.050Z,21.23
2023-04-26T01:11:38.143Z,21.22
2023-04-26T01:14:06.425Z,21.22
2023-04-26T01:16:33.835Z,21.22
2023-04-26T01:19:09.533Z,21.22
2023-04-26T01:21:36.690Z,21.24
2023-04-26T01:24:04.066Z,21.23
2023-04-26T01:26:32.062Z,21.21
2023-04-26T01:28:59.437Z,21.22
2023-04-26T01:31:26.642Z,21.21
2023-04-26T01:33:53.921Z,21.18
2023-04-26T01:36:21.207Z,21.18
2023-04-26T01:38:48.512Z,21.17
2023-04-26T01:41:16.501Z,21.18
2023-04-26T01:43:43.661Z,21.17
2023-04-26T01:46:10.967Z,21.14
2023-04-26T01:48:38.170Z,21.15
2023-04-26T01:51:05.432Z,21.18
2023-04-26T01:53:32.584Z,21.17
2023-04-26T01:56:02.823Z,21.16
2023-04-26T01:58:30.385Z,21.16
2023-04-26T02:01:04.465Z,21.15
2023-04-26T02:03:31.655Z,21.13
2023-04-26T02:05:58.872Z,21.13
2023-04-26T02:08:26.093Z,21.12
2023-04-26T02:10:53.306Z,21.10
2023-04-26T02:13:20.693Z,21.11
2023-04-26T02:15:51.535Z,21.12
2023-04-26T02:18:21.890Z,21.09
2023-04-26T02:20:51.924Z,21.07
2023-04-26T02:23:19.129Z,21.09
2023-04-26T02:25:50.031Z,21.09
2023-04-26T02:28:17.544Z,21.08
2023-04-26T02:30:44.911Z,21.09
2023-04-26T02:33:12.309Z,21.07
2023-04-26T02:35:39.500Z,21.05
2023-04-26T02:38:06.912Z,21.04
2023-04-26T02:40:34.166Z,21.04
2023-04-26T02:43:01.575Z,21.04
2023-04-26T02:45:28.758Z,21.03
2023-04-26T02:47:56.127Z,21.03
2023-04-26T02:50:23.817Z,21.02
2023-04-26T02:52:51.036Z,21.02
2023-04-26T02:55:18.375Z,21.02
2023-04-26T02:57:45.620Z,21.01
2023-04-26T03:00:14.034Z,20.99
2023-04-26T03:02:41.751Z,21.00
2023-04-26T03:05:09.694Z,21.01
2023-04-26T03:07:37.283Z,20.98
2023-04-26T03:10:05.397Z,20.95
2023-04-26T03:12:32.560Z,20.95
2023-04-26T03:14:59.852Z,20.95
2023-04-26T03:17:27.059Z,20.92
2023-04-26T03:19:54.279Z,20.94
2023-04-26T03:22:21.532Z,20.93
2023-04-26T03:24:49.199Z,20.94
2023-04-26T03:27:16.753Z,20.96
2023-04-26T03:29:44.324Z,20.93
2023-04-26T03:32:11.742Z,20.91
2023-04-26T03:34:39.001Z,20.91
2023-04-26T03:37:06.492Z,20.89
2023-04-26T03:39:33.754Z,20.92
2023-04-26T03:42:01.236Z,20.93
2023-04-26T03:44:30.498Z,20.93
2023-04-26T03:46:58.312Z,20.93
2023-04-26T03:49:25.558Z,20.91
2023-04-26T03:51:52.775Z,20.90
2023-04-26T03:54:20.108Z,20.86
2023-04-26T03:56:47.339Z,20.86
2023-04-26T03:59:14.696Z,20.88
2023-04-26T04:01:42.115Z,20.88
2023-04-26T04:04:10.134Z,20.87
2023-04-26T04:06:38.356Z,20.90
2023-04-26T04:09:05.957Z,20.87
2023-04-26T04:11:33.171Z,20.87
2023-04-26T04:14:00.367Z,20.86
2023-04-26T04:16:27.667Z,20.84
2023-04-26T04:18:55.115Z,20.83
2023-04-26T04:21:22.507Z,20.84
2023-04-26T04:23:50.287Z,20.85
2023-04-26T04:26:19.094Z,20.84
2023-04-26T04:28:47.291Z,20.85
2023-04-26T04:31:14.675Z,20.85
2023-04-26T04:33:42.022Z,20.86
2023-04-26T04:36:09.795Z,20.84
2023-04-26T04:38:37.324Z,20.84
2023-04-26T04:41:04.562Z,20.85
2023-04-26T04:43:31.730Z,20.85
2023-04-26T04:45:58.956Z,20.89
2023-04-26T04:48:26.230Z,20.90
2023-04-26T04:50:53.455Z,20.87
2023-04-26T04:53:20.859Z,20.92
2023-04-26T04:55:49.316Z,20.96
2023-04-26T04:58:16.479Z,20.98
2023-04-26T05:00:43.651Z,20.94
2023-04-26T05:03:11.030Z,20.80
2023-04-26T05:05:38.253Z,20.68
2023-04-26T05:08:07.950Z,20.58
2023-04-26T05:10:36.136Z,20.50
2023-04-26T05:13:03.601Z,20.43
2023-04-26T05:15:30.861Z,20.41
2023-04-26T05:17:59.609Z,20.35
2023-04-26T05:20:27.024Z,20.40
2023-04-26T05:22:54.302Z,20.53
2023-04-26T05:25:22.704Z,20.61
2023-04-26T05:27:50.464Z,20.54
2023-04-26T05:30:17.744Z,20.49
2023-04-26T05:32:45.948Z,20.47
2023-04-26T05:35:13.322Z,20.43
2023-04-26T05:37:40.679Z,20.40
2023-04-26T05:40:08.970Z,20.42
2023-04-26T05:42:36.844Z,20.40
2023-04-26T05:45:04.640Z,20.37
2023-04-26T05:47:31.833Z,20.29
2023-04-26T05:50:01.460Z,20.27
2023-04-26T05:52:28.639Z,20.24
2023-04-26T05:54:55.865Z,20.22
2023-04-26T05:57:23.072Z,20.18
2023-04-26T05:59:50.713Z,20.12
2023-04-26T06:02:18.026Z,20.14
2023-04-26T06:04:46.358Z,20.10
2023-04-26T06:07:13.732Z,20.08
2023-04-26T06:09:40.986Z,20.08
2023-04-26T06:12:08.310Z,20.07
2023-04-26T06:14:35.542Z,20.07
2023-04-26T06:17:03.251Z,20.05
2023-04-26T06:19:30.673Z,20.07
2023-04-26T06:21:57.954Z,20.05
2023-04-26T06:24:26.106Z,20.10
2023-04-26T06:26:56.077Z,20.15
2023-04-26T06:29:23.410Z,20.13
2023-04-26T06:31:50.622Z,20.14
2023-04-26T06:34:17.833Z,20.12
2023-04-26T06:36:48.414Z,20.08
2023-04-26T06:39:15.654Z,20.11
2023-04-26T06:41:43.447Z,20.10
2023-04-26T06:44:10.673Z,20.07
2023-04-26T06:46:38.345Z,20.06
2023-04-26T06:49:05.806Z,20.04
2023-04-26T06:51:33.012Z,20.03
2023-04-26T06:54:01.032Z,20.06
2023-04-26T06:56:30.427Z,20.08
2023-04-26T06:59:02.605Z,20.07
2023-04-26T07:01:33.654Z,20.03
2023-04-26T07:04:04.092Z,19.98
2023-04-26T07:06:32.105Z,20.00
2023-04-26T07:09:01.351Z,19.94
2023-04-26T07:11:28.990Z,19.84
2023-04-26T07:13:56.708Z,19.82
2023-04-26T07:16:24.263Z,19.85
2023-04-26T07:18:52.881Z,19.81
2023-04-26T07:21:20.481Z,19.76
2023-04-26T07:23:47.703Z,19.76
2023-04-26T07:26:14.912Z,19.72
2023-04-26T07:28:42.157Z,19.71
2023-04-26T07:31:11.036Z,19.69
2023-04-26T07:33:38.775Z,19.71
2023-04-26T07:36:06.216Z,19.72
2023-04-26T07:38:33.525Z,19.75
2023-04-26T07:41:04.582Z,19.71
2023-04-26T07:43:32.057Z,19.69
2023-04-26T07:46:02.589Z,19.66
2023-04-26T07:48:29.958Z,19.62
2023-04-26T07:50:57.503Z,19.62
2023-04-26T07:53:24.791Z,19.62
2023-04-26T07:55:52.126Z,19.64
2023-04-26T07:58:19.427Z,19.63
2023-04-26T08:00:46.714Z,19.61
2023-04-26T08:03:17.812Z,19.59
2023-04-26T08:05:45.623Z,19.59
2023-04-26T08:08:13.082Z,19.59
2023-04-26T08:10:43.129Z,19.62
2023-04-26T08:13:10.414Z,19.58
2023-04-26T08:15:37.801Z,19.55
2023-04-26T08:18:05.553Z,19.56
2023-04-26T08:20:32.831Z,19.54
2023-04-26T08:23:00.558Z,19.52
2023-04-26T08:25:28.081Z,19.53
2023-04-26T08:27:55.281Z,19.56
2023-04-26T08:30:23.223Z,19.54
2023-04-26T08:32:50.611Z,19.53
2023-04-26T08:35:17.904Z,19.54
2023-04-26T08:37:45.332Z,19.59
2023-04-26T08:40:12.861Z,19.57
2023-04-26T08:42:42.375Z,19.53
2023-04-26T08:45:11.504Z,19.55
2023-04-26T08:47:41.221Z,19.53
2023-04-26T08:50:09.334Z,19.57
2023-04-26T08:52:37.305Z,19.57
2023-04-26T08:55:06.248Z,19.58
2023-04-26T08:57:33.692Z,19.55
2023-04-26T09:00:05.797Z,19.55
2023-04-26T09:02:33.463Z,19.53
2023-04-26T09:05:00.851Z,19.52
2023-04-26T09:07:33.068Z,19.53
2023-04-26T09:10:04.119Z,19.55
2023-04-26T09:12:31.301Z,19.52
2023-04-26T09:14:58.611Z,19.51
2023-04-26T09:17:27.523Z,19.52
2023-04-26T09:19:54.973Z,19.51
2023-04-26T09:22:29.892Z,19.50
2023-04-26T09:24:57.101Z,19.50
2023-04-26T09:27:39.864Z,19.54
2023-04-26T09:30:09.405Z,19.52
2023-04-26T09:32:49.299Z,19.51
2023-04-26T09:35:32.168Z,19.53
2023-04-26T09:38:10.528Z,19.50
2023-04-26T09:40:47.234Z,19.49
2023-04-26T09:43:16.635Z,19.51
2023-04-26T09:45:57.690Z,19.51
2023-04-26T09:48:34.359Z,19.46
2023-04-26T09:51:04.800Z,19.42
2023-04-26T09:53:46.493Z,19.42
2023-04-26T09:56:14.630Z,19.41
2023-04-26T09:58:47.243Z,19.46
2023-04-26T10:01:20.700Z,19.45
2023-04-26T10:03:47.995Z,19.43
2023-04-26T10:06:16.149Z,19.39
2023-04-26T10:08:43.782Z,19.36
2023-04-26T10:11:11.859Z,19.35
2023-04-26T10:13:40.400Z,19.36
2023-04-26T10:16:09.906Z,19.47
2023-04-26T10:18:37.751Z,19.53
2023-04-26T10:21:16.916Z,19.70
2023-04-26T10:23:44.553Z,19.85
2023-04-26T10:26:51.666Z,19.98
2023-04-26T10:29:19.678Z,20.08
2023-04-26T10:32:07.680Z,20.17
2023-04-26T10:34:38.677Z,20.18
2023-04-26T10:37:13.488Z,20.17
2023-04-26T10:39:42.140Z,20.18
2023-04-26T10:42:30.828Z,20.20
2023-04-26T10:44:59.567Z,20.23
2023-04-26T10:47:36.437Z,20.23
2023-04-26T10:50:08.886Z,20.25
2023-04-26T10:52:58.772Z,20.25
2023-04-26T10:55:42.971Z,20.28
2023-04-26T10:58:32.217Z,20.29
2023-04-26T11:01:06.433Z,20.29
2023-04-26T11:03:33.918Z,20.31
2023-04-26T11:06:02.539Z,20.32
2023-04-26T11:08:31.894Z,20.34
2023-04-26T11:11:10.516Z,20.36
2023-04-26T11:13:41.982Z,20.36
2023-04-26T11:16:16.715Z,20.38
2023-04-26T11:18:48.682Z,20.38
2023-04-26T11:21:18.960Z,20.40
2023-04-26T11:23:55.761Z,20.41
2023-04-26T11:26:24.632Z,20.43
2023-04-26T11:28:52.142Z,20.44
2023-04-26T11:31:19.864Z,20.45
2023-04-26T11:33:50.772Z,20.47
2023-04-26T11:36:19.760Z,20.49
2023-04-26T11:38:47.168Z,20.52
2023-04-26T11:41:14.329Z,20.53
2023-04-26T11:43:41.865Z,20.54
2023-04-26T11:46:10.091Z,20.56
2023-04-26T11:48:38.537Z,20.57
2023-04-26T11:51:07.291Z,20.57
2023-04-26T11:53:38.412Z,20.59
2023-04-26T11:56:18.943Z,20.58
2023-04-26T11:58:51.290Z,20.60
2023-04-26T12:01:26.529Z,20.60
2023-04-26T12:03:55.627Z,20.62
2023-04-26T12:06:42.547Z,20.63
2023-04-26T12:09:11.260Z,20.62
2023-04-26T12:11:39.052Z,20.63
2023-04-26T12:14:07.929Z,20.64
2023-04-26T12:16:38.256Z,20.63
2023-04-26T12:19:09.163Z,20.65
2023-04-26T12:21:43.486Z,20.66
2023-04-26T12:24:38.707Z,20.67
2023-04-26T12:27:07.314Z,20.69
2023-04-26T12:29:35.113Z,20.70
2023-04-26T12:32:03.162Z,20.71
2023-04-26T12:34:31.155Z,20.71
2023-04-26T12:36:58.779Z,20.72
2023-04-26T12:39:26.090Z,20.73
2023-04-26T12:41:53.385Z,20.77
2023-04-26T12:44:22.463Z,20.76
2023-04-26T12:46:50.165Z,20.77
2023-04-26T12:49:17.564Z,20.82
2023-04-26T12:51:44.788Z,20.78
2023-04-26T12:54:12.156Z,20.82
2023-04-26T12:56:43.783Z,20.84
2023-04-26T12:59:11.176Z,20.84
2023-04-26T13:01:38.621Z,20.84
2023-04-26T13:04:06.586Z,20.87
2023-04-26T13:06:34.133Z,20.92
2023-04-26T13:09:01.711Z,20.92
2023-04-26T13:11:29.037Z,20.94
2023-04-26T13:13:56.243Z,20.96
2023-04-26T13:16:23.513Z,20.95
2023-04-26T13:18:50.854Z,20.97
2023-04-26T13:21:18.051Z,20.96
2023-04-26T13:23:47.326Z,20.99
2023-04-26T13:26:17.573Z,20.98
2023-04-26T13:28:44.827Z,20.99
2023-04-26T13:31:12.102Z,21.00
2023-04-26T13:33:39.323Z,21.00
2023-04-26T13:36:07.255Z,21.01
2023-04-26T13:38:34.508Z,21.00
2023-04-26T13:41:02.387Z,20.97
2023-04-26T13:43:29.613Z,20.97
2023-04-26T13:45:56.876Z,20.96
2023-04-26T13:48:24.259Z,20.97
2023-04-26T13:50:51.493Z,21.04
2023-04-26T13:53:19.891Z,21.09
2023-04-26T13:55:47.089Z,21.12
2023-04-26T13:58:14.803Z,21.16
2023-04-26T14:00:42.444Z,21.20
2023-04-26T14:03:09.808Z,21.24
2023-04-26T14:05:37.387Z,21.24
2023-04-26T14:08:04.642Z,21.27
2023-04-26T14:10:32.242Z,21.30
2023-04-26T14:12:59.423Z,21.36
2023-04-26T14:15:26.659Z,21.39
2023-04-26T14:17:53.903Z,21.44
2023-04-26T14:20:21.321Z,21.46
2023-04-26T14:22:50.220Z,21.51
2023-04-26T14:25:17.548Z,21.39
2023-04-26T14:27:44.745Z,21.29
2023-04-26T14:30:12.524Z,21.25
2023-04-26T14:32:39.853Z,21.23
2023-04-26T14:35:07.344Z,21.21
2023-04-26T14:37:34.519Z,21.21
2023-04-26T14:40:01.915Z,21.19
2023-04-26T14:42:29.455Z,21.17
2023-04-26T14:44:59.529Z,21.17
2023-04-26T14:47:27.111Z,21.15
2023-04-26T14:49:54.301Z,21.14
2023-04-26T14:52:21.554Z,21.15
2023-04-26T14:54:48.823Z,21.16
2023-04-26T14:57:16.134Z,21.15
2023-04-26T14:59:45.873Z,21.15
2023-04-26T15:02:13.171Z,21.14
2023-04-26T15:04:40.607Z,21.14
2023-04-26T15:07:13.049Z,21.13
2023-04-26T15:09:48.191Z,21.15
2023-04-26T15:12:15.349Z,21.12
2023-04-26T15:14:42.565Z,21.13
2023-04-26T15:17:09.743Z,21.13
2023-04-26T15:19:37.013Z,21.15
2023-04-26T15:22:04.657Z,21.16
2023-04-26T15:24:36.886Z,21.18
2023-04-26T15:27:05.025Z,21.18
2023-04-26T15:29:35.340Z,21.17
2023-04-26T15:32:03.102Z,21.18
2023-04-26T15:34:40.357Z,21.18
2023-04-26T15:37:07.861Z,21.20
2023-04-26T15:39:35.079Z,21.22
2023-04-26T15:42:02.503Z,21.24
2023-04-26T15:44:30.377Z,21.26
2023-04-26T15:46:57.892Z,21.28
2023-04-26T15:49:25.648Z,21.29
2023-04-26T15:51:53.007Z,21.30
2023-04-26T15:54:21.746Z,21.28
2023-04-26T15:56:49.142Z,21.30
2023-04-26T15:59:20.159Z,21.28
2023-04-26T16:01:47.708Z,21.28
2023-04-26T16:04:15.304Z,21.28
2023-04-26T16:06:42.674Z,21.31
2023-04-26T16:09:24.925Z,21.28
2023-04-26T16:11:53.190Z,21.27
2023-04-26T16:14:20.501Z,21.29
2023-04-26T16:16:47.750Z,21.25
2023-04-26T16:19:16.344Z,21.25
2023-04-26T16:21:43.633Z,21.24
2023-04-26T16:24:12.303Z,21.21
2023-04-26T16:26:39.603Z,21.21
2023-04-26T16:29:06.817Z,21.21
2023-04-26T16:31:34.625Z,21.20
2023-04-26T16:34:01.892Z,21.21
2023-04-26T16:36:29.080Z,21.20
2023-04-26T16:38:56.644Z,21.18
2023-04-26T16:41:24.528Z,21.17
2023-04-26T16:43:54.063Z,21.18
2023-04-26T16:46:21.454Z,21.21
2023-04-26T16:48:48.761Z,21.21
2023-04-26T16:51:16.186Z,21.21
2023-04-26T16:53:43.650Z,21.21
2023-04-26T16:56:11.047Z,21.15
2023-04-26T16:58:38.339Z,21.13
2023-04-26T17:01:06.012Z,21.08
2023-04-26T17:03:33.420Z,21.15
2023-04-26T17:06:01.486Z,21.18
2023-04-26T17:08:28.749Z,21.19
2023-04-26T17:10:56.362Z,21.21
2023-04-26T17:13:24.243Z,21.24
2023-04-26T17:15:51.491Z,21.23
2023-04-26T17:18:18.715Z,21.27
2023-04-26T17:20:45.892Z,21.30
2023-04-26T17:23:13.221Z,21.28
2023-04-26T17:25:40.452Z,21.31
2023-04-26T17:28:07.656Z,21.31
2023-04-26T17:30:34.863Z,21.27
2023-04-26T17:33:02.074Z,21.27
2023-04-26T17:35:29.327Z,21.27
2023-04-26T17:37:56.488Z,21.28
2023-04-26T17:40:24.317Z,21.30
2023-04-26T17:42:51.528Z,21.28
2023-04-26T17:45:18.697Z,21.28
2023-04-26T17:47:46.109Z,21.28
2023-04-26T17:50:13.686Z,21.28
2023-04-26T17:52:40.844Z,21.26
2023-04-26T17:55:10.035Z,21.29
2023-04-26T17:57:37.715Z,21.28
2023-04-26T18:00:09.883Z,21.28
2023-04-26T18:02:37.486Z,21.30
2023-04-26T18:05:05.866Z,21.30
2023-04-26T18:07:33.156Z,21.30
2023-04-26T18:10:00.417Z,21.30
2023-04-26T18:12:30.598Z,21.29
2023-04-26T18:14:57.841Z,21.29
2023-04-26T18:17:25.114Z,21.27
2023-04-26T18:19:52.393Z,21.27
2023-04-26T18:22:20.497Z,21.27
2023-04-26T18:24:47.685Z,21.30
2023-04-26T18:27:14.957Z,21.29
2023-04-26T18:29:42.353Z,21.28
2023-04-26T18:32:09.543Z,21.29
2023-04-26T18:34:36.719Z,21.29
2023-04-26T18:37:04.746Z,21.27
2023-04-26T18:39:32.115Z,21.28
2023-04-26T18:41:59.368Z,21.28
2023-04-26T18:44:26.700Z,21.27
2023-04-26T18:46:55.775Z,21.27
2023-04-26T18:49:23.628Z,21.26
2023-04-26T18:51:50.758Z,21.25
2023-04-26T18:54:17.918Z,21.27
2023-04-26T18:56:45.212Z,21.27
2023-04-26T18:59:12.938Z,21.27
2023-04-26T19:01:40.420Z,21.25
2023-04-26T19:04:09.106Z,21.26
2023-04-26T19:06:36.410Z,21.24
2023-04-26T19:09:05.860Z,21.25
2023-04-26T19:11:33.116Z,21.25
2023-04-26T19:14:00.390Z,21.30
2023-04-26T19:16:27.650Z,21.29
2023-04-26T19:18:55.093Z,21.29
2023-04-26T19:21:22.265Z,21.25
2023-04-26T19:23:49.439Z,21.20
2023-04-26T19:26:16.653Z,21.19
2023-04-26T19:28:43.894Z,21.21
2023-04-26T19:31:11.318Z,21.24
2023-04-26T19:33:38.600Z,21.26
2023-04-26T19:36:05.843Z,21.29
2023-04-26T19:38:33.149Z,21.30
2023-04-26T19:41:01.752Z,21.30
2023-04-26T19:43:29.038Z,21.29
2023-04-26T19:45:56.222Z,21.30
2023-04-26T19:48:23.432Z,21.29
2023-04-26T19:50:50.634Z,21.29
2023-04-26T19:53:17.865Z,21.30
2023-04-26T19:55:45.279Z,21.30
2023-04-26T19:58:12.685Z,21.32
2023-04-26T20:00:40.478Z,21.31
2023-04-26T20:03:08.516Z,21.30
2023-04-26T20:05:37.028Z,21.32
2023-04-26T20:08:04.255Z,21.31
2023-04-26T20:10:33.443Z,21.32
2023-04-26T20:13:00.903Z,21.32
2023-04-26T20:15:28.289Z,21.31
2023-04-26T20:17:55.672Z,21.31
2023-04-26T20:20:22.966Z,21.31
2023-04-26T20:22:50.222Z,21.30
2023-04-26T20:25:19.866Z,21.32
2023-04-26T20:27:47.710Z,21.32
2023-04-26T20:30:15.715Z,21.29
2023-04-26T20:32:43.250Z,21.30
2023-04-26T20:35:12.758Z,21.29
2023-04-26T20:37:40.065Z,21.30
2023-04-26T20:40:07.970Z,21.30
2023-04-26T20:42:35.417Z,21.30
2023-04-26T20:45:03.011Z,21.31
2023-04-26T20:47:30.500Z,21.31
2023-04-26T20:49:57.702Z,21.29
2023-04-26T20:52:24.984Z,21.30
2023-04-26T20:54:52.321Z,21.31
2023-04-26T20:57:19.551Z,21.29
2023-04-26T20:59:46.704Z,21.28
2023-04-26T21:02:14.022Z,21.31
2023-04-26T21:04:42.833Z,21.31
2023-04-26T21:07:11.096Z,21.31
2023-04-26T21:09:38.978Z,21.31
2023-04-26T21:12:06.695Z,21.30
2023-04-26T21:14:33.956Z,21.30
2023-04-26T21:17:01.460Z,21.29
2023-04-26T21:19:28.706Z,21.31
2023-04-26T21:21:56.609Z,21.28
2023-04-26T21:24:23.890Z,21.28
2023-04-26T21:26:51.125Z,21.31
2023-04-26T21:29:18.312Z,21.29
2023-04-26T21:31:45.889Z,21.28
2023-04-26T21:34:13.183Z,21.28
2023-04-26T21:36:40.365Z,21.27
2023-04-26T21:39:09.993Z,21.27
2023-04-26T21:41:37.517Z,21.26
2023-04-26T21:44:04.704Z,21.27
2023-04-26T21:46:32.030Z,21.28
2023-04-26T21:48:59.641Z,21.28
2023-04-26T21:51:27.829Z,21.28
2023-04-26T21:53:55.238Z,21.28
2023-04-26T21:56:22.396Z,21.27
2023-04-26T21:58:49.558Z,21.28
2023-04-26T22:01:16.846Z,21.27
2023-04-26T22:03:44.124Z,21.27
2023-04-26T22:06:12.037Z,21.27
2023-04-26T22:08:39.233Z,21.28
2023-04-26T22:11:06.849Z,21.28
2023-04-26T22:13:34.001Z,21.25
2023-04-26T22:16:01.256Z,21.26
2023-04-26T22:18:29.341Z,21.25
2023-04-26T22:20:56.717Z,21.26
2023-04-26T22:23:23.995Z,21.26
2023-04-26T22:25:52.328Z,21.25
2023-04-26T22:28:19.515Z,21.25
2023-04-26T22:30:46.775Z,21.24
2023-04-26T22:33:13.995Z,21.24
2023-04-26T22:35:41.539Z,21.24
2023-04-26T22:38:08.716Z,21.25
2023-04-26T22:40:36.273Z,21.25
2023-04-26T22:43:03.495Z,21.24
2023-04-26T22:45:30.675Z,21.23
2023-04-26T22:47:57.900Z,21.24
2023-04-26T22:50:25.352Z,21.22
2023-04-26T22:52:52.508Z,21.22
2023-04-26T22:55:19.892Z,21.20
2023-04-26T22:57:47.272Z,21.20
2023-04-26T23:00:15.130Z,21.21
2023-04-26T23:02:42.583Z,21.21
2023-04-26T23:05:10.439Z,21.21
2023-04-26T23:07:38.827Z,21.19
2023-04-26T23:10:06.818Z,21.18
2023-04-26T23:12:34.004Z,21.19
2023-04-26T23:15:01.906Z,21.19
2023-04-26T23:17:29.177Z,21.20
2023-04-26T23:19:56.496Z,21.19
2023-04-26T23:22:23.663Z,21.18
2023-04-26T23:24:51.512Z,21.21
2023-04-26T23:27:21.412Z,21.18
2023-04-26T23:29:51.405Z,21.19
2023-04-26T23:32:18.562Z,21.16
2023-04-26T23:34:45.718Z,21.16
2023-04-26T23:37:12.910Z,21.17
2023-04-26T23:39:40.102Z,21.20
2023-04-26T23:42:07.256Z,21.18
2023-04-26T23:44:34.467Z,21.17
2023-04-26T23:47:01.675Z,21.19
2023-04-26T23:49:28.855Z,21.17
2023-04-26T23:51:56.066Z,21.15
2023-04-26T23:54:23.304Z,21.16
2023-04-26T23:56:50.672Z,21.17
2023-04-26T23:59:17.992Z,21.14
